createdAt,value
2019-05-14T00:04:02.053Z,14.8
2019-05-14T00:08:58.281Z,15.4
2019-05-14T00:13:55.330Z,15.3
2019-05-14T00:18:51.985Z,15.3
2019-05-14T00:23:51.354Z,14.7
2019-05-14T00:28:46.794Z,14.7
2019-05-14T00:33:44.116Z,14.6
2019-05-14T00:38:41.927Z,14.7
2019-05-14T00:43:38.428Z,15
2019-05-14T00:48:35.535Z,15
2019-05-14T00:58:31.001Z,15.2
2019-05-14T01:03:25.728Z,15.2
2019-05-14T01:08:22.788Z,15.1
2019-05-14T01:13:21.698Z,15
2019-05-14T01:18:16.455Z,15
2019-05-14T01:23:13.343Z,15.2
2019-05-14T01:28:11.249Z,14.6
2019-05-14T01:33:07.637Z,14.7
2019-05-14T01:38:04.913Z,14.8
2019-05-14T01:43:02.545Z,14.6
2019-05-14T01:48:00.979Z,15
2019-05-14T01:52:56.373Z,14.6
2019-05-14T01:57:53.006Z,14.9
2019-05-14T02:02:52.234Z,14.9
2019-05-14T02:07:46.560Z,14.9
2019-05-14T02:12:43.450Z,15.1
2019-05-14T02:17:41.331Z,14.9
2019-05-14T02:22:36.822Z,14.7
2019-05-14T02:27:34.947Z,14.7
2019-05-14T02:32:30.505Z,14.9
2019-05-14T02:37:30.054Z,14.8
2019-05-14T02:42:24.338Z,14.2
2019-05-14T02:47:21.375Z,14.7
2019-05-14T02:52:20.274Z,14.8
2019-05-14T02:57:15.126Z,14.9
2019-05-14T03:02:11.880Z,14.8
2019-05-14T03:07:10.607Z,14.5
2019-05-14T03:12:05.385Z,14.8
2019-05-14T03:17:02.162Z,14.9
2019-05-14T03:22:00.165Z,14.9
2019-05-14T03:32:02.715Z,14.9
2019-05-14T03:37:02.390Z,15
2019-05-14T03:41:53.216Z,14.7
2019-05-14T03:46:55.031Z,14.6
2019-05-14T03:51:49.666Z,14.2
2019-05-14T03:56:44.786Z,14.6
2019-05-14T04:01:41.485Z,14.5
2019-05-14T04:06:40.256Z,14.5
2019-05-14T04:11:35.195Z,13.1
2019-05-14T04:16:31.766Z,14.1
2019-05-14T04:21:29.711Z,14.3
2019-05-14T04:26:25.514Z,14.2
2019-05-14T04:31:22.663Z,13.7
2019-05-14T04:36:19.826Z,14.2
2019-05-14T04:41:19.461Z,13.7
2019-05-14T04:46:13.343Z,14.4
2019-05-14T04:51:10.418Z,14.4
2019-05-14T04:56:09.704Z,14.1
2019-05-14T05:01:04.979Z,14.3
2019-05-14T05:06:02.100Z,14.5
2019-05-14T05:11:00.183Z,13.9
2019-05-14T05:15:58.989Z,14.2
2019-05-14T05:20:53.349Z,14.3
2019-05-14T05:25:50.893Z,14.2
2019-05-14T05:30:49.026Z,13.8
2019-05-14T05:35:45.074Z,14.1
2019-05-14T05:40:42.204Z,14.4
2019-05-14T05:45:39.347Z,14.2
2019-05-14T05:50:36.098Z,14.3
2019-05-14T05:55:32.375Z,14.4
2019-05-14T06:00:29.905Z,14.4
2019-05-14T06:05:29.198Z,14.3
2019-05-14T06:10:24.518Z,14.5
2019-05-14T06:15:21.574Z,14.5
2019-05-14T06:20:18.906Z,14.6
2019-05-14T06:25:15.416Z,14.6
2019-05-14T06:30:12.447Z,14.6
2019-05-14T06:35:09.599Z,14.6
2019-05-14T06:40:08.746Z,14.5
2019-05-14T06:45:03.590Z,14.7
2019-05-14T06:50:00.787Z,14.8
2019-05-14T06:54:58.223Z,14.9
2019-05-14T06:59:54.468Z,14.9
2019-05-14T07:04:51.276Z,14.8
2019-05-14T07:09:48.787Z,14.9
2019-05-14T07:14:47.966Z,14.6
2019-05-14T07:19:42.295Z,15
2019-05-14T07:24:40.504Z,15.1
2019-05-14T07:29:38.685Z,14.7
2019-05-14T07:34:33.191Z,15.1
2019-05-14T07:39:30.914Z,14.7
2019-05-14T07:44:29.599Z,15.4
2019-05-14T07:49:24.395Z,15.5
2019-05-14T07:54:21.439Z,15
2019-05-14T07:59:18.253Z,15.6
2019-05-14T08:04:17.780Z,15.6
2019-05-14T08:09:12.467Z,15.1
2019-05-14T08:14:09.119Z,15.6
2019-05-14T08:19:19.701Z,15.6
2019-05-14T08:24:02.127Z,15.7
2019-05-14T08:28:58.947Z,15.8
2019-05-14T08:33:55.935Z,15.9
2019-05-14T08:38:53.271Z,15.3
2019-05-14T08:43:49.965Z,15.8
2019-05-14T08:48:49.231Z,15.8
2019-05-14T08:53:44.374Z,15.4
2019-05-14T08:58:41.323Z,16
2019-05-14T09:03:39.143Z,16.1
2019-05-14T09:08:35.146Z,16.1
2019-05-14T09:13:31.882Z,16.2
2019-05-14T09:18:29.240Z,16.5
2019-05-14T09:23:28.340Z,16.7
2019-05-14T09:28:22.827Z,16.9
2019-05-14T09:33:24.251Z,16.5
2019-05-14T09:38:18.774Z,17.2
2019-05-14T09:43:15.288Z,16.9
2019-05-14T09:48:12.026Z,17.4
2019-05-14T09:53:09.915Z,16.9
2019-05-14T09:58:08.117Z,17.3
2019-05-14T10:03:03.912Z,17.2
2019-05-14T10:08:00.681Z,17.2
2019-05-14T10:13:01.237Z,16.7
2019-05-14T10:17:54.938Z,17.3
2019-05-14T10:22:51.774Z,17.6
2019-05-14T10:27:48.752Z,17.6
2019-05-14T10:32:45.567Z,17.6
2019-05-14T10:37:42.512Z,17.6
2019-05-14T10:42:40.262Z,17.5
2019-05-14T10:47:38.786Z,17.3
2019-05-14T10:52:33.440Z,17.5
2019-05-14T10:57:30.296Z,17.4
2019-05-14T11:02:29.144Z,17.3
2019-05-14T11:07:24.179Z,17.3
2019-05-14T11:12:21.306Z,17.1
2019-05-14T11:17:19.580Z,17.1
2019-05-14T11:22:14.964Z,15.8
2019-05-14T11:27:11.964Z,16.8
2019-05-14T11:32:09.596Z,16.9
2019-05-14T11:37:05.407Z,16.7
2019-05-14T11:42:01.955Z,16.9
2019-05-14T11:47:02.309Z,16.9
2019-05-14T11:52:03.608Z,17
2019-05-14T11:56:52.817Z,17.2
2019-05-14T12:01:50.117Z,17.5
2019-05-14T12:06:46.946Z,17.2
2019-05-14T12:11:44.016Z,17.2
2019-05-14T12:16:40.574Z,17.1
2019-05-14T12:21:39.669Z,16.2
2019-05-14T12:26:34.339Z,17.1
2019-05-14T12:31:31.476Z,17.1
2019-05-14T12:36:29.220Z,16.7
2019-05-14T12:41:25.386Z,17
2019-05-14T12:46:22.263Z,17.2
2019-05-14T12:51:19.762Z,16.2
2019-05-14T12:56:18.748Z,17.3
2019-05-14T13:01:13.137Z,17.5
2019-05-14T13:06:10.391Z,17.5
2019-05-14T13:11:09.305Z,17.4
2019-05-14T13:16:04.419Z,17
2019-05-14T13:21:00.560Z,17
2019-05-14T13:25:58.708Z,16.9
2019-05-14T13:30:53.898Z,16.8
2019-05-14T13:35:50.717Z,16.6
2019-05-14T13:40:49.080Z,16.7
2019-05-14T13:45:44.272Z,16.7
2019-05-14T13:50:41.162Z,16.6
2019-05-14T13:55:45.439Z,16.8
2019-05-14T14:00:35.664Z,17.4
2019-05-14T14:05:32.400Z,16.9
2019-05-14T14:10:31.299Z,16.9
2019-05-14T14:15:26.129Z,16.8
2019-05-14T14:20:23.061Z,16.7
2019-05-14T14:25:19.931Z,16.8
2019-05-14T14:30:19.405Z,16.8
2019-05-14T14:35:13.542Z,16.9
2019-05-14T14:40:11.202Z,17
2019-05-14T14:45:08.575Z,13.8
2019-05-14T14:50:04.025Z,16.9
2019-05-14T14:55:01.061Z,16.7
2019-05-14T14:59:58.511Z,16.2
2019-05-14T15:04:55.190Z,16.6
2019-05-14T15:09:51.908Z,16.5
2019-05-14T15:14:49.311Z,16.3
2019-05-14T15:19:45.881Z,16.4
2019-05-14T15:24:43.154Z,15.9
2019-05-14T15:29:42.959Z,16.1
2019-05-14T15:34:36.672Z,16.2
2019-05-14T15:39:33.498Z,16.3
2019-05-14T15:44:46.230Z,16
2019-05-14T15:49:28.325Z,16.1
2019-05-14T15:54:38.991Z,16.3
2019-05-14T15:59:20.989Z,16
2019-05-14T16:04:20.616Z,16
2019-05-14T16:09:14.797Z,16.1
2019-05-14T16:14:11.467Z,16.2
2019-05-14T16:19:08.424Z,16
2019-05-14T16:24:04.960Z,16
2019-05-14T16:29:01.801Z,16.1
2019-05-14T16:33:58.714Z,16.1
2019-05-14T16:38:58.404Z,15.4
2019-05-14T16:43:52.824Z,16
2019-05-14T16:48:50.214Z,15.9
2019-05-14T16:53:48.745Z,16.1
2019-05-14T16:58:43.917Z,15.5
2019-05-14T17:03:41.175Z,15.1
2019-05-14T17:08:39.318Z,15.7
2019-05-14T17:13:35.263Z,15.6
2019-05-14T17:18:32.203Z,16
2019-05-14T17:23:29.175Z,16
2019-05-14T17:28:28.402Z,16.1
2019-05-14T17:33:23.216Z,15.6
2019-05-14T17:38:20.563Z,15.5
2019-05-14T17:43:19.142Z,16
2019-05-14T17:48:14.052Z,15.8
2019-05-14T17:53:10.812Z,15.8
2019-05-14T17:58:13.055Z,16
2019-05-14T18:03:04.730Z,15.7
2019-05-14T18:08:01.673Z,16
2019-05-14T18:12:59.723Z,16
2019-05-14T18:17:55.897Z,16.2
2019-05-14T18:22:53.081Z,15.7
2019-05-14T18:27:50.104Z,16.2
2019-05-14T18:32:48.570Z,16.1
2019-05-14T18:37:43.472Z,16
2019-05-14T18:42:40.663Z,15.6
2019-05-14T18:47:39.718Z,16.1
2019-05-14T18:52:34.163Z,16.1
2019-05-14T18:57:32.029Z,16.2
2019-05-14T19:02:29.412Z,15.6
2019-05-14T19:07:28.658Z,15.6
2019-05-14T19:12:23.283Z,16.1
2019-05-14T19:17:20.164Z,16.1
2019-05-14T19:22:17.484Z,15.6
2019-05-14T19:27:14.265Z,16
2019-05-14T19:32:11.218Z,15.8
2019-05-14T19:37:08.445Z,16.1
2019-05-14T19:42:05.096Z,16.1
2019-05-14T19:47:01.981Z,16
2019-05-14T19:51:59.090Z,15.3
2019-05-14T19:56:58.218Z,16.2
2019-05-14T20:01:53.427Z,15.6
2019-05-14T20:06:50.836Z,15.8
2019-05-14T20:11:49.019Z,16.2
2019-05-14T20:16:44.964Z,15.8
2019-05-14T20:21:41.836Z,16.3
2019-05-14T20:26:39.073Z,16.2
2019-05-14T20:31:35.693Z,14.9
2019-05-14T20:36:32.395Z,15.3
2019-05-14T20:41:29.537Z,15.4
2019-05-14T20:46:28.504Z,15.2
2019-05-14T20:51:23.133Z,14.1
2019-05-14T20:56:19.835Z,14.4
2019-05-14T21:01:18.358Z,14
2019-05-14T21:06:13.742Z,13.5
2019-05-14T21:11:10.302Z,13.8
2019-05-14T21:16:08.326Z,13.1
2019-05-14T21:21:03.596Z,13.1
2019-05-14T21:26:00.543Z,12.9
2019-05-14T21:30:59.191Z,13.1
2019-05-14T21:35:54.202Z,12.4
2019-05-14T21:40:51.099Z,13.3
2019-05-14T21:45:48.931Z,13
2019-05-14T21:50:44.779Z,12.6
2019-05-14T21:55:41.926Z,12
2019-05-14T22:00:41.951Z,11.6
2019-05-14T22:05:35.571Z,11.9
2019-05-14T22:10:32.249Z,11.9
2019-05-14T22:15:29.381Z,12.1
2019-05-14T22:20:28.708Z,11.9
2019-05-14T22:25:23.111Z,12.1
2019-05-14T22:30:20.158Z,12.2
2019-05-14T22:35:18.664Z,12.1
2019-05-14T22:40:13.633Z,11.8
2019-05-14T22:45:10.452Z,11.8
2019-05-14T22:50:08.894Z,12.4
2019-05-14T22:55:03.928Z,11.9
2019-05-14T23:00:00.625Z,12.5
2019-05-14T23:04:58.508Z,12.2
2019-05-14T23:09:54.176Z,11.6
2019-05-14T23:14:50.887Z,11.5
2019-05-14T23:19:48.348Z,11.4
2019-05-14T23:24:44.299Z,11.5
2019-05-14T23:29:41.411Z,11.4
2019-05-14T23:34:38.248Z,11.5
2019-05-14T23:39:35.496Z,11.8
2019-05-14T23:44:32.727Z,11.8
2019-05-14T23:49:29.540Z,12.1
2019-05-14T23:54:26.208Z,11.5
2019-05-14T23:59:23.151Z,11.7
